Time;durP1;ratioP1;P1;durP2;ratioP2;P2;SDS_P1;SDS_P2;PMS_P1;PMS_P2;Temp;Humidity;BMP_temperature;BMP_pressure;BME280_temperature;BME280_humidity;BME280_pressure;Samples;Min_cycle;Max_cycle;Signal;HPM_P1;HPM_P2
2022/05/10 00:07:34;;;;;;;17.80;15.93;;;10.80;99.90;;;;;;5075082;28;20028;-85
2022/05/10 00:10:00;;;;;;;16.85;14.98;;;10.80;99.90;;;;;;5075961;28;20419;-85
2022/05/10 00:12:26;;;;;;;19.70;15.88;;;10.80;99.90;;;;;;5075857;28;20025;-86
2022/05/10 00:14:51;;;;;;;17.27;15.43;;;10.70;99.90;;;;;;5057824;28;20028;-85
2022/05/10 00:17:34;;;;;;;18.60;14.90;;;10.70;99.90;;;;;;5057617;28;20031;-85
2022/05/10 00:19:59;;;;;;;18.47;14.93;;;10.70;99.90;;;;;;5053845;28;20116;-85
2022/05/10 00:22:25;;;;;;;17.47;15.57;;;10.60;99.90;;;;;;5037760;28;20052;-85
2022/05/10 00:24:50;;;;;;;17.33;15.53;;;10.60;99.90;;;;;;5037682;28;20105;-85
2022/05/10 00:27:17;;;;;;;16.37;14.63;;;10.60;99.90;;;;;;5055942;28;20121;-85
2022/05/10 00:29:43;;;;;;;17.13;15.33;;;10.60;99.90;;;;;;5055546;28;20032;-85
2022/05/10 00:32:09;;;;;;;19.37;16.23;;;10.60;99.90;;;;;;5055925;28;20029;-85
2022/05/10 00:34:35;;;;;;;18.90;15.67;;;10.50;99.90;;;;;;5037951;28;20759;-85
2022/05/10 00:37:00;;;;;;;17.20;15.47;;;10.50;99.90;;;;;;5055286;28;20048;-85
2022/05/10 00:39:26;;;;;;;16.63;14.87;;;10.50;99.90;;;;;;5037382;28;20489;-85
2022/05/10 00:42:56;;;;;;;16.70;15.00;;;10.40;99.90;;;;;;5055387;28;20025;-85
2022/05/10 00:45:42;;;;;;;16.67;14.87;;;10.40;99.90;;;;;;4992233;28;20371;-85
2022/05/10 00:48:07;;;;;;;16.83;14.37;;;10.30;99.90;;;;;;5055054;28;20095;-85
2022/05/10 00:50:41;;;;;;;15.57;13.97;;;10.30;99.90;;;;;;5055073;28;20437;-84
2022/05/10 00:53:55;;;;;;;16.73;14.50;;;10.20;99.90;;;;;;5053067;28;20102;-85
2022/05/10 00:56:45;;;;;;;16.97;15.17;;;10.20;99.90;;;;;;5048467;28;20063;-85
2022/05/10 00:59:20;;;;;;;17.73;15.93;;;10.20;99.90;;;;;;5036971;28;20021;-85
2022/05/10 01:01:51;;;;;;;17.40;15.13;;;10.10;99.90;;;;;;5037006;28;20057;-85
2022/05/10 01:04:26;;;;;;;20.27;15.90;;;10.10;99.90;;;;;;5054828;28;20021;-85
2022/05/10 01:07:18;;;;;;;16.63;14.83;;;10.00;99.90;;;;;;5036831;28;20330;-85
2022/05/10 01:09:52;;;;;;;17.87;15.77;;;10.00;99.90;;;;;;5036720;28;20119;-85
2022/05/10 01:12:28;;;;;;;19.80;16.17;;;10.00;99.90;;;;;;5036691;28;20043;-85
2022/05/10 01:15:02;;;;;;;18.73;16.47;;;10.00;99.90;;;;;;5036984;28;20055;-85
2022/05/10 01:17:27;;;;;;;19.17;16.53;;;9.90;99.90;;;;;;5036270;28;20045;-85
2022/05/10 01:19:53;;;;;;;18.57;16.30;;;9.90;99.90;;;;;;5054439;28;20112;-85
2022/05/10 01:22:36;;;;;;;20.83;16.37;;;9.90;99.90;;;;;;5054437;28;20024;-85
2022/05/10 01:25:20;;;;;;;20.17;16.33;;;9.80;99.90;;;;;;5054388;28;20040;-85
2022/05/10 01:28:09;;;;;;;18.80;16.80;;;9.80;99.90;;;;;;5036445;28;20025;-84
2022/05/10 01:30:36;;;;;;;18.90;16.57;;;9.80;99.90;;;;;;5036534;28;20474;-85
2022/05/10 01:36:12;;;;;;;20.40;17.00;;;9.70;99.90;;;;;;5054334;28;20040;-85
2022/05/10 01:39:13;;;;;;;20.07;18.00;;;9.70;99.90;;;;;;5054176;28;20029;-85
2022/05/10 01:41:48;;;;;;;19.67;16.53;;;9.70;99.90;;;;;;5054240;28;20025;-85
2022/05/10 01:44:32;;;;;;;18.83;16.88;;;9.70;99.90;;;;;;5036207;28;20108;-85
2022/05/10 01:47:06;;;;;;;18.20;16.10;;;9.60;99.90;;;;;;5054249;28;20420;-84
2022/05/10 01:49:54;;;;;;;20.83;17.03;;;9.60;99.90;;;;;;5054051;28;20428;-85
2022/05/10 01:53:03;;;;;;;19.70;15.90;;;9.50;99.90;;;;;;5035861;28;20028;-85
2022/05/10 01:55:35;;;;;;;19.53;16.17;;;9.50;99.90;;;;;;5034262;28;20040;-85
2022/05/10 01:58:07;;;;;;;18.53;16.67;;;9.50;99.90;;;;;;5073642;28;20373;-84
2022/05/10 02:00:34;;;;;;;19.23;16.13;;;9.50;99.90;;;;;;5073982;28;20020;-85
2022/05/10 02:03:08;;;;;;;19.60;16.30;;;9.40;99.90;;;;;;5073671;28;20103;-85
2022/05/10 02:05:47;;;;;;;21.47;18.57;;;9.40;99.90;;;;;;5073598;28;20159;-85
2022/05/10 02:08:31;;;;;;;20.23;17.70;;;9.30;99.90;;;;;;5055467;28;20031;-85
2022/05/10 02:11:02;;;;;;;17.97;16.07;;;9.30;99.90;;;;;;5073506;28;20031;-84
2022/05/10 02:13:37;;;;;;;18.70;16.30;;;9.30;99.90;;;;;;5055329;28;20032;-85
2022/05/10 02:16:20;;;;;;;17.30;15.50;;;9.30;99.90;;;;;;5073527;28;20032;-85
2022/05/10 02:19:23;;;;;;;18.67;15.97;;;9.20;99.90;;;;;;5073262;28;20028;-85
2022/05/10 02:21:56;;;;;;;17.70;15.80;;;9.20;99.90;;;;;;5073608;28;20024;-85
2022/05/10 02:24:31;;;;;;;18.83;16.47;;;9.20;99.90;;;;;;5055308;28;20471;-84
2022/05/10 02:27:03;;;;;;;19.58;17.58;;;9.20;99.90;;;;;;5055246;28;20036;-85
2022/05/10 02:29:44;;;;;;;19.50;17.37;;;9.20;99.90;;;;;;5072107;28;20081;-84
2022/05/10 02:35:16;;;;;;;21.53;17.43;;;9.20;99.90;;;;;;5072092;28;20124;-85
2022/05/10 02:37:41;;;;;;;23.27;18.33;;;9.20;99.90;;;;;;5054206;28;20040;-85
2022/05/10 02:40:08;;;;;;;21.27;17.93;;;9.20;99.90;;;;;;5054978;28;20517;-85
2022/05/10 02:42:34;;;;;;;20.53;17.57;;;9.20;99.90;;;;;;5047258;28;20017;-85
2022/05/10 02:45:02;;;;;;;21.20;18.90;;;9.20;99.90;;;;;;5052646;28;20424;-84
2022/05/10 02:47:31;;;;;;;21.93;16.43;;;9.20;99.90;;;;;;5035567;28;20028;-84
2022/05/10 02:49:57;;;;;;;20.33;17.73;;;9.20;99.90;;;;;;5071032;28;20028;-84
2022/05/10 02:52:23;;;;;;;21.03;17.30;;;9.10;99.90;;;;;;5045686;28;20111;-84
2022/05/10 02:54:57;;;;;;;18.87;16.87;;;9.10;99.90;;;;;;5063469;28;20025;-84
2022/05/10 02:57:26;;;;;;;20.87;16.80;;;9.10;99.90;;;;;;5051835;28;20028;-83
2022/05/10 02:59:55;;;;;;;20.87;17.33;;;9.10;99.90;;;;;;5072618;28;20016;-89
2022/05/10 03:02:29;;;;;;;21.83;16.83;;;9.10;99.90;;;;;;5072935;28;20499;-85
2022/05/10 03:04:56;;;;;;;19.83;17.73;;;9.10;99.90;;;;;;5054677;28;20029;-85
2022/05/10 03:07:23;;;;;;;25.20;18.03;;;9.00;99.90;;;;;;5054627;28;20032;-85
2022/05/10 03:09:49;;;;;;;20.67;18.47;;;9.00;99.90;;;;;;5072792;28;20024;-86
2022/05/10 03:12:15;;;;;;;20.27;18.07;;;9.00;99.90;;;;;;5054578;28;20083;-85
2022/05/10 03:14:40;;;;;;;23.30;18.63;;;9.00;99.90;;;;;;5054608;28;20461;-85
2022/05/10 03:17:08;;;;;;;22.37;19.20;;;9.00;99.90;;;;;;5072819;28;20021;-85
2022/05/10 03:19:34;;;;;;;20.53;18.20;;;8.90;99.90;;;;;;5054673;28;20021;-85
2022/05/10 03:22:00;;;;;;;21.10;18.83;;;8.90;99.90;;;;;;5054748;28;20495;-85
2022/05/10 03:24:25;;;;;;;24.17;19.43;;;8.90;99.90;;;;;;5054600;28;20389;-85
2022/05/10 03:26:53;;;;;;;20.67;17.83;;;8.90;99.90;;;;;;5054604;28;20033;-85
2022/05/10 03:29:19;;;;;;;19.23;16.83;;;8.90;99.90;;;;;;5054378;28;20020;-85
2022/05/10 03:31:45;;;;;;;20.33;16.37;;;8.90;99.90;;;;;;5072541;28;20082;-85
2022/05/10 03:36:56;;;;;;;20.40;15.90;;;8.80;99.90;;;;;;5072538;28;20082;-85
2022/05/10 03:39:21;;;;;;;18.03;15.70;;;8.80;99.90;;;;;;5072421;28;20024;-85
2022/05/10 03:41:47;;;;;;;22.17;17.00;;;8.80;99.90;;;;;;5075213;28;20481;-85
2022/05/10 03:44:13;;;;;;;18.47;16.57;;;8.80;99.90;;;;;;5076439;28;20050;-85
2022/05/10 03:46:38;;;;;;;25.67;16.93;;;8.70;99.90;;;;;;5058503;28;20020;-85
2022/05/10 03:49:04;;;;;;;21.03;17.77;;;8.80;99.90;;;;;;5058321;28;20342;-85
2022/05/10 03:51:31;;;;;;;19.87;17.07;;;8.70;99.90;;;;;;5058000;28;20072;-85
2022/05/10 03:53:57;;;;;;;18.97;16.07;;;8.70;99.90;;;;;;5057948;28;20024;-85
2022/05/10 03:56:23;;;;;;;18.80;16.77;;;8.70;99.90;;;;;;5038861;28;20465;-85
2022/05/10 03:58:50;;;;;;;17.97;16.03;;;8.70;99.90;;;;;;5056146;28;20029;-85
2022/05/10 04:01:18;;;;;;;20.37;16.43;;;8.70;99.90;;;;;;5056137;28;20082;-85
2022/05/10 04:03:45;;;;;;;22.37;16.23;;;8.70;99.90;;;;;;5037858;28;20024;-85
2022/05/10 04:06:10;;;;;;;20.93;15.80;;;8.70;99.90;;;;;;5056130;28;20048;-85
2022/05/10 04:08:36;;;;;;;19.20;16.33;;;8.70;99.90;;;;;;5055936;28;20083;-85
2022/05/10 04:11:04;;;;;;;19.63;16.00;;;8.70;99.90;;;;;;5055965;28;20086;-85
2022/05/10 04:13:31;;;;;;;21.17;15.53;;;8.70;99.90;;;;;;5055848;28;20029;-85
2022/05/10 04:15:57;;;;;;;19.07;15.63;;;8.70;99.90;;;;;;5075657;28;20032;-85
2022/05/10 04:18:23;;;;;;;17.97;15.23;;;8.70;99.90;;;;;;5039202;28;20419;-85
2022/05/10 04:20:49;;;;;;;22.70;15.33;;;8.70;99.90;;;;;;5037850;28;20055;-84
2022/05/10 04:23:14;;;;;;;24.40;16.10;;;8.70;99.90;;;;;;5062802;28;20482;-88
2022/05/10 04:25:40;;;;;;;18.57;15.33;;;8.80;99.90;;;;;;5071179;28;20067;-87
2022/05/10 04:28:06;;;;;;;17.97;16.07;;;8.80;99.90;;;;;;5075433;28;20039;-88
2022/05/10 04:30:32;;;;;;;17.13;14.97;;;8.80;99.90;;;;;;5056226;28;20070;-89
2022/05/10 04:32:58;;;;;;;21.63;15.70;;;8.80;99.90;;;;;;5045769;28;20028;-83
2022/05/10 04:35:23;;;;;;;22.27;15.60;;;8.80;99.90;;;;;;5056236;28;20073;-88
2022/05/10 04:37:49;;;;;;;18.30;16.03;;;8.80;99.90;;;;;;5057551;28;20027;-89
2022/05/10 04:42:59;;;;;;;18.07;16.13;;;9.00;99.90;;;;;;5073033;28;20162;-88
2022/05/10 04:45:25;;;;;;;18.30;16.33;;;9.10;99.90;;;;;;5075198;28;20078;-89
2022/05/10 04:47:50;;;;;;;20.57;16.50;;;9.20;99.90;;;;;;5068246;28;20036;-89
2022/05/10 04:50:16;;;;;;;17.43;15.50;;;9.30;99.90;;;;;;5057213;28;20088;-88
2022/05/10 04:52:42;;;;;;;17.30;15.27;;;9.60;99.90;;;;;;5056145;28;20422;-83
2022/05/10 04:55:09;;;;;;;16.53;14.10;;;9.80;99.90;;;;;;5056929;28;20009;-83
2022/05/10 04:57:36;;;;;;;16.47;12.90;;;10.00;99.90;;;;;;5074647;28;20035;-83
2022/05/10 05:00:04;;;;;;;16.83;14.23;;;10.10;99.90;;;;;;5072692;28;20082;-83
2022/05/10 05:02:32;;;;;;;14.47;12.97;;;10.20;99.90;;;;;;5064340;28;20098;-83
2022/05/10 05:04:57;;;;;;;18.27;13.33;;;10.40;99.90;;;;;;5054502;28;20023;-84
2022/05/10 05:07:23;;;;;;;16.50;13.77;;;10.40;99.90;;;;;;5056604;28;20028;-82
2022/05/10 05:09:50;;;;;;;15.07;13.20;;;10.50;99.90;;;;;;5074219;28;20472;-82
2022/05/10 05:12:16;;;;;;;15.53;13.10;;;10.50;99.90;;;;;;5071039;28;20028;-90
2022/05/10 05:14:42;;;;;;;14.93;13.43;;;10.60;99.90;;;;;;5069427;28;20028;-90
2022/05/10 05:17:07;;;;;;;14.70;12.10;;;10.70;99.90;;;;;;5074629;28;20073;-91
2022/05/10 05:19:33;;;;;;;14.67;12.30;;;10.70;99.90;;;;;;5057272;28;20017;-91
2022/05/10 05:21:59;;;;;;;14.47;11.87;;;10.80;99.90;;;;;;5056768;28;20012;-92
2022/05/10 05:24:24;;;;;;;13.27;11.73;;;10.90;99.90;;;;;;5074504;28;20114;-92
2022/05/10 05:26:52;;;;;;;14.37;11.87;;;11.00;99.90;;;;;;5056440;28;20025;-91
2022/05/10 05:29:18;;;;;;;15.02;11.27;;;11.10;99.90;;;;;;5056750;28;20107;-91
2022/05/10 05:31:45;;;;;;;12.80;10.25;;;11.20;99.90;;;;;;5057049;28;20417;-92
2022/05/10 05:34:12;;;;;;;12.43;9.98;;;11.30;99.90;;;;;;5057274;28;20028;-92
2022/05/10 05:36:40;;;;;;;11.23;10.13;;;11.40;99.90;;;;;;5057157;28;20023;-91
2022/05/10 05:39:06;;;;;;;12.05;10.43;;;11.60;99.90;;;;;;5057845;28;20170;-92
2022/05/10 05:41:33;;;;;;;12.43;10.27;;;11.70;99.90;;;;;;5057361;28;20056;-92
2022/05/10 05:43:59;;;;;;;11.43;9.65;;;11.90;99.90;;;;;;5056998;28;20017;-93
2022/05/10 05:46:27;;;;;;;11.00;9.60;;;12.00;99.90;;;;;;5052502;28;20075;-84
2022/05/10 05:48:52;;;;;;;11.80;10.20;;;12.10;99.90;;;;;;5069831;28;20021;-84
2022/05/10 05:51:18;;;;;;;13.98;9.48;;;12.30;99.90;;;;;;5065383;28;20055;-92
2022/05/10 05:53:44;;;;;;;12.20;9.45;;;12.30;99.90;;;;;;5059132;28;20035;-91
2022/05/10 05:56:11;;;;;;;9.90;8.63;;;12.50;99.90;;;;;;5052394;28;20020;-92
2022/05/10 05:58:38;;;;;;;9.45;8.55;;;12.70;99.90;;;;;;5056931;28;20036;-87
2022/05/10 06:01:15;;;;;;;10.52;8.25;;;12.80;99.90;;;;;;5054912;28;20051;-87
2022/05/10 06:03:44;;;;;;;14.07;8.48;;;13.00;99.90;;;;;;5073078;28;20024;-87
2022/05/10 06:06:17;;;;;;;9.38;8.38;;;13.20;99.90;;;;;;5073129;28;20040;-86
2022/05/10 06:09:06;;;;;;;10.70;8.02;;;13.40;99.90;;;;;;5075148;28;20032;-87
2022/05/10 06:11:35;;;;;;;9.73;8.13;;;13.50;99.90;;;;;;5006300;28;20477;-82
2022/05/10 06:14:23;;;;;;;12.98;7.70;;;13.70;99.90;;;;;;5053706;28;20036;-82
2022/05/10 06:16:56;;;;;;;9.02;7.45;;;13.90;99.90;;;;;;5054742;28;20481;-84
2022/05/10 06:19:24;;;;;;;11.05;8.13;;;14.10;99.90;;;;;;5073448;28;20025;-85
2022/05/10 06:21:54;;;;;;;11.98;7.40;;;14.30;99.90;;;;;;5073335;28;20031;-85
2022/05/10 06:24:24;;;;;;;11.90;7.90;;;14.50;99.90;;;;;;5073567;28;20102;-85
2022/05/10 06:26:52;;;;;;;13.27;7.95;;;14.70;99.90;;;;;;5073120;28;20027;-85
2022/05/10 06:29:23;;;;;;;8.95;7.63;;;14.70;99.90;;;;;;5055642;28;20021;-84
2022/05/10 06:31:56;;;;;;;9.70;7.43;;;14.90;99.90;;;;;;5055417;28;20020;-85
2022/05/10 06:34:24;;;;;;;10.55;7.82;;;15.00;99.90;;;;;;5073483;28;20024;-85
2022/05/10 06:39:57;;;;;;;12.35;8.05;;;15.30;99.90;;;;;;5071590;28;20120;-85
2022/05/10 06:42:24;;;;;;;8.30;7.35;;;15.30;99.90;;;;;;5073485;28;20060;-85
2022/05/10 06:44:57;;;;;;;10.50;8.07;;;15.40;99.90;;;;;;5073349;28;20099;-84
2022/05/10 06:47:22;;;;;;;10.20;7.57;;;15.60;99.90;;;;;;5074036;28;20025;-85
2022/05/10 06:49:53;;;;;;;9.73;7.97;;;15.60;99.90;;;;;;5056262;28;20119;-85
2022/05/10 06:52:24;;;;;;;10.18;8.38;;;15.60;99.90;;;;;;5073162;28;20455;-85
2022/05/10 06:54:57;;;;;;;9.48;7.82;;;15.80;99.90;;;;;;5073804;28;20044;-85
2022/05/10 06:57:23;;;;;;;10.88;7.63;;;15.80;99.90;;;;;;5056692;28;20373;-85
2022/05/10 06:59:48;;;;;;;10.07;7.75;;;15.80;99.90;;;;;;5073123;28;20040;-85
2022/05/10 07:02:14;;;;;;;11.77;7.65;;;15.80;99.90;;;;;;5055179;28;20035;-85
2022/05/10 07:04:41;;;;;;;9.35;7.80;;;15.80;99.90;;;;;;5055225;28;20033;-85
2022/05/10 07:07:07;;;;;;;8.63;7.72;;;16.00;99.90;;;;;;5073346;28;20051;-85
2022/05/10 07:09:33;;;;;;;11.98;7.80;;;16.00;99.90;;;;;;5073231;28;20025;-85
2022/05/10 07:11:58;;;;;;;11.27;7.00;;;16.10;99.90;;;;;;5072519;28;20117;-89
2022/05/10 07:14:24;;;;;;;9.60;7.15;;;16.10;99.90;;;;;;5053900;28;20032;-80
2022/05/10 07:16:50;;;;;;;13.60;8.25;;;16.20;99.90;;;;;;5071303;28;20050;-80
2022/05/10 07:19:16;;;;;;;9.15;7.60;;;16.20;99.90;;;;;;5054257;28;20351;-81
2022/05/10 07:21:44;;;;;;;11.82;7.63;;;16.30;99.90;;;;;;5068898;28;20039;-81
2022/05/10 07:24:16;;;;;;;10.52;6.60;;;16.30;99.90;;;;;;5071614;28;20445;-81
2022/05/10 07:26:45;;;;;;;11.30;7.00;;;16.40;99.90;;;;;;5053294;28;20024;-80
2022/05/10 07:29:14;;;;;;;14.45;7.10;;;16.40;99.90;;;;;;5071697;28;20016;-81
2022/05/10 07:31:43;;;;;;;12.60;6.70;;;16.40;99.90;;;;;;5053580;28;20035;-81
2022/05/10 07:34:16;;;;;;;11.10;6.60;;;16.50;99.90;;;;;;5071278;28;20027;-81
2022/05/10 07:36:44;;;;;;;11.15;6.28;;;16.50;99.90;;;;;;5071399;28;20037;-81
2022/05/10 07:39:15;;;;;;;9.88;5.97;;;16.70;99.90;;;;;;5071944;28;20017;-81
2022/05/10 07:41:44;;;;;;;9.45;5.78;;;16.70;99.90;;;;;;5071572;28;20021;-81
2022/05/10 07:44:11;;;;;;;6.90;5.35;;;16.70;99.90;;;;;;5053555;28;20028;-80
2022/05/10 07:46:37;;;;;;;13.60;6.40;;;16.70;99.90;;;;;;5071503;28;20033;-81
2022/05/10 07:49:03;;;;;;;9.70;5.35;;;16.80;99.90;;;;;;5064968;28;20098;-80
2022/05/10 07:51:29;;;;;;;8.45;5.47;;;16.80;99.90;;;;;;5071420;28;20076;-81
2022/05/10 07:53:54;;;;;;;9.18;5.30;;;16.90;99.90;;;;;;5071707;28;20063;-81
2022/05/10 07:56:43;;;;;;;;;;;;;;;;;;;;;
2022/05/10 07:59:55;;;;;;;9.55;5.07;;;17.00;99.90;;;;;;5069238;28;20032;-81
2022/05/10 08:02:24;;;;;;;7.35;5.47;;;17.00;99.90;;;;;;5040697;28;20041;-82
2022/05/10 08:04:57;;;;;;;7.53;4.82;;;17.20;99.90;;;;;;5058908;28;20478;-82
2022/05/10 08:07:25;;;;;;;7.45;4.95;;;17.30;99.90;;;;;;5052535;28;20025;-81
2022/05/10 08:09:52;;;;;;;7.88;4.90;;;17.50;99.90;;;;;;5070871;28;20024;-81
2022/05/10 08:12:25;;;;;;;5.78;4.80;;;17.50;99.90;;;;;;5071093;28;20056;-82
2022/05/10 08:14:53;;;;;;;8.25;5.30;;;17.50;99.90;;;;;;5071514;28;20107;-82
2022/05/10 08:17:26;;;;;;;7.30;5.18;;;17.70;99.90;;;;;;5071204;28;20499;-82
2022/05/10 08:19:57;;;;;;;5.13;4.38;;;17.60;99.90;;;;;;5073570;28;20059;-84
2022/05/10 08:22:25;;;;;;;7.57;4.78;;;17.70;99.90;;;;;;5067600;28;20052;-84
2022/05/10 08:24:53;;;;;;;8.82;4.50;;;17.70;99.90;;;;;;5074592;28;20115;-84
2022/05/10 08:27:24;;;;;;;5.70;4.55;;;17.70;99.90;;;;;;5072766;28;20067;-84
2022/05/10 08:29:54;;;;;;;8.35;4.55;;;17.90;99.90;;;;;;5048649;28;20033;-84
2022/05/10 08:32:28;;;;;;;6.63;4.30;;;18.00;99.90;;;;;;5055872;28;20036;-84
2022/05/10 08:34:53;;;;;;;5.45;4.72;;;18.10;99.90;;;;;;5037844;28;20108;-84
2022/05/10 08:37:27;;;;;;;7.78;4.85;;;18.10;99.90;;;;;;5064121;28;20104;-81
2022/05/10 08:39:57;;;;;;;7.95;5.82;;;18.20;99.90;;;;;;5041241;28;20476;-77
2022/05/10 08:42:28;;;;;;;5.60;4.72;;;18.30;99.90;;;;;;5075777;28;20032;-78
2022/05/10 08:45:00;;;;;;;6.40;4.47;;;18.40;99.90;;;;;;5076009;28;20381;-82
2022/05/10 08:47:28;;;;;;;8.13;4.97;;;18.40;99.90;;;;;;5057675;28;20028;-83
2022/05/10 08:49:57;;;;;;;6.55;4.78;;;18.50;99.90;;;;;;5075485;28;20031;-82
2022/05/10 08:52:45;;;;;;;5.68;5.03;;;18.70;99.90;;;;;;5074851;28;20039;-83
2022/05/10 08:55:19;;;;;;;6.38;5.03;;;18.90;99.90;;;;;;5075382;28;20364;-82
2022/05/10 08:57:57;;;;;;;7.68;5.25;;;19.00;99.90;;;;;;5075187;28;20047;-82
2022/05/10 09:00:47;;;;;;;9.68;5.03;;;19.00;99.90;;;;;;5075171;28;20497;-82
2022/05/10 09:03:43;;;;;;;7.20;5.00;;;19.10;99.90;;;;;;5073547;28;20513;-77
2022/05/10 09:06:27;;;;;;;7.07;4.88;;;19.40;99.90;;;;;;5074566;28;20028;-78
2022/05/10 09:09:07;;;;;;;7.38;4.60;;;19.60;99.90;;;;;;5074487;28;20067;-82
2022/05/10 09:11:48;;;;;;;8.00;4.88;;;19.70;99.90;;;;;;5074166;28;20025;-81
2022/05/10 09:14:14;;;;;;;8.45;5.20;;;19.80;99.90;;;;;;5072252;28;20043;-82
2022/05/10 09:16:40;;;;;;;9.55;4.68;;;19.90;99.90;;;;;;5074424;28;20346;-82
2022/05/10 09:19:09;;;;;;;6.60;4.50;;;20.00;99.90;;;;;;5056353;28;20012;-81
2022/05/10 09:21:54;;;;;;;7.35;5.40;;;20.20;99.90;;;;;;5056057;28;20090;-82
2022/05/10 09:24:40;;;;;;;5.80;4.97;;;20.30;99.90;;;;;;5073925;28;20028;-79
2022/05/10 09:27:12;;;;;;;7.65;5.03;;;20.70;99.90;;;;;;5050316;28;20024;-80
2022/05/10 09:29:40;;;;;;;9.07;4.75;;;21.00;99.90;;;;;;5068763;28;20106;-78
2022/05/10 09:35:22;;;;;;;8.52;4.75;;;21.50;99.90;;;;;;5068437;28;20048;-79
2022/05/10 09:37:51;;;;;;;5.13;4.53;;;21.80;99.90;;;;;;5064346;28;20075;-79
2022/05/10 09:40:41;;;;;;;5.25;4.28;;;22.00;99.90;;;;;;5048679;28;20028;-88
2022/05/10 09:43:27;;;;;;;5.57;4.10;;;22.10;99.90;;;;;;5064762;28;20099;-76
2022/05/10 09:46:08;;;;;;;7.15;4.45;;;22.40;99.90;;;;;;5070550;28;20028;-76
2022/05/10 09:48:34;;;;;;;7.18;4.05;;;22.60;99.90;;;;;;5055771;28;20028;-76
2022/05/10 09:51:24;;;;;;;6.28;4.13;;;22.70;99.90;;;;;;5073925;28;20044;-76
2022/05/10 09:53:50;;;;;;;4.85;3.80;;;22.90;99.90;;;;;;5055561;28;20035;-77
2022/05/10 09:56:24;;;;;;;6.45;3.95;;;23.10;99.90;;;;;;5070216;28;20024;-76
2022/05/10 09:59:09;;;;;;;;;;;23.50;99.90;;;;;;5074065;28;20024;-76
2022/05/10 10:01:43;;;;;;;7.47;3.88;;;23.60;99.90;;;;;;5066885;28;20014;-81
2022/05/10 10:04:33;;;;;;;7.50;4.20;;;23.90;99.90;;;;;;5070786;28;20053;-82
2022/05/10 10:07:21;;;;;;;5.00;3.70;;;24.00;99.90;;;;;;5062548;28;20047;-81
2022/05/10 10:10:14;;;;;;;7.38;4.15;;;24.00;99.90;;;;;;5054894;28;20021;-82
2022/05/10 10:12:43;;;;;;;9.68;4.22;;;24.10;99.90;;;;;;5072033;28;20021;-81
2022/05/10 10:15:24;;;;;;;6.75;3.58;;;24.60;98.50;;;;;;5054879;28;20126;-81
2022/05/10 10:17:56;;;;;;;5.63;3.60;;;24.60;99.70;;;;;;5072665;28;20025;-81
2022/05/10 10:20:31;;;;;;;5.43;3.65;;;24.50;99.90;;;;;;5072691;28;20043;-81
2022/05/10 10:22:59;;;;;;;6.82;4.88;;;24.60;99.90;;;;;;5067503;28;20100;-81
2022/05/10 10:25:26;;;;;;;4.80;4.30;;;24.90;99.90;;;;;;5072384;28;20032;-81
2022/05/10 10:28:05;;;;;;;7.10;5.18;;;24.90;99.90;;;;;;5072488;28;20093;-81
2022/05/10 10:30:38;;;;;;;7.45;4.93;;;25.00;99.90;;;;;;5069854;28;20122;-81
2022/05/10 10:33:34;;;;;;;8.80;4.57;;;24.90;99.90;;;;;;5067872;28;20120;-84
2022/05/10 10:36:30;;;;;;;5.95;4.20;;;24.80;99.30;;;;;;5069012;28;20024;-86
2022/05/10 10:39:04;;;;;;;5.85;4.68;;;24.80;99.90;;;;;;5052741;28;20075;-81
2022/05/10 10:41:33;;;;;;;9.82;5.50;;;25.00;99.90;;;;;;5072877;28;20021;-81
2022/05/10 10:44:08;;;;;;;9.40;5.00;;;24.80;99.70;;;;;;5072497;28;20047;-81
2022/05/10 10:46:37;;;;;;;7.57;4.25;;;24.70;99.90;;;;;;5054081;28;20091;-80
2022/05/10 10:49:13;;;;;;;7.32;4.80;;;24.60;99.90;;;;;;5072212;28;20401;-80
2022/05/10 10:51:39;;;;;;;4.40;3.80;;;24.70;99.60;;;;;;5070645;28;20150;-81
2022/05/10 10:54:19;;;;;;;4.80;3.95;;;24.80;99.90;;;;;;5054488;28;20024;-80
2022/05/10 10:57:39;;;;;;;6.22;3.97;;;24.80;99.90;;;;;;5053445;28;20021;-80
2022/05/10 11:00:28;;;;;;;4.50;4.10;;;24.90;96.80;;;;;;4973513;28;20030;-81
2022/05/10 11:02:57;;;;;;;4.28;3.88;;;24.80;95.30;;;;;;5032749;28;20065;-80
2022/05/10 11:05:42;;;;;;;7.07;3.92;;;24.80;96.50;;;;;;5054060;28;20024;-80
2022/05/10 11:08:29;;;;;;;6.00;4.07;;;24.90;98.10;;;;;;5059374;28;20473;-81
2022/05/10 11:11:16;;;;;;;4.43;3.80;;;25.20;96.30;;;;;;5052250;28;20376;-80
2022/05/10 11:14:06;;;;;;;5.40;3.70;;;25.40;95.60;;;;;;5066772;28;20093;-80
2022/05/10 11:16:32;;;;;;;5.18;3.42;;;25.50;97.20;;;;;;5070428;28;20025;-80
2022/05/10 11:19:19;;;;;;;4.45;3.35;;;26.00;93.10;;;;;;5068784;28;20025;-80
2022/05/10 11:22:02;;;;;;;5.35;3.90;;;26.10;91.60;;;;;;5066547;28;20031;-80
2022/05/10 11:25:09;;;;;;;4.30;3.80;;;26.40;90.80;;;;;;5069240;28;20031;-81
2022/05/10 11:27:59;;;;;;;5.18;3.90;;;26.30;90.10;;;;;;4986901;28;20094;-81
2022/05/10 11:30:33;;;;;;;5.65;3.70;;;26.20;90.70;;;;;;4991702;28;20027;-80
2022/05/10 11:33:27;;;;;;;3.97;3.33;;;25.90;91.50;;;;;;5045495;28;20059;-76
2022/05/10 11:36:06;;;;;;;4.85;3.63;;;25.30;91.10;;;;;;5056378;28;20052;-75
2022/05/10 11:39:07;;;;;;;7.95;4.10;;;24.80;90.30;;;;;;5071835;28;20017;-75
2022/05/10 11:41:47;;;;;;;5.38;3.88;;;24.30;92.40;;;;;;5071554;28;20021;-75
2022/05/10 11:44:34;;;;;;;4.03;3.47;;;23.80;93.60;;;;;;5052662;28;20104;-76
2022/05/10 11:47:17;;;;;;;5.22;3.92;;;23.50;93.00;;;;;;5052473;28;20040;-76
2022/05/10 11:50:01;;;;;;;4.03;3.28;;;23.60;96.00;;;;;;5068418;28;20028;-76
2022/05/10 11:52:49;;;;;;;6.38;3.22;;;23.70;92.50;;;;;;5072126;28;20394;-76
2022/05/10 11:55:36;;;;;;;4.35;3.47;;;23.90;94.50;;;;;;5063620;28;20031;-77
2022/05/10 11:58:06;;;;;;;4.85;3.10;;;24.40;92.30;;;;;;5063110;28;20818;-77
2022/05/10 12:00:31;;;;;;;7.47;3.50;;;25.00;91.50;;;;;;5063728;28;20556;-77
2022/05/10 12:02:58;;;;;;;6.53;3.35;;;25.10;89.40;;;;;;5065227;28;20115;-77
2022/05/10 12:05:35;;;;;;;6.30;3.75;;;24.80;90.90;;;;;;5060705;28;20101;-77
2022/05/10 12:08:14;;;;;;;4.28;3.30;;;24.90;91.20;;;;;;5060356;28;20032;-77
2022/05/10 12:10:44;;;;;;;3.83;3.28;;;25.20;92.30;;;;;;5069089;28;20025;-76
2022/05/10 12:13:10;;;;;;;4.55;2.97;;;26.10;89.30;;;;;;5076180;28;20020;-75
2022/05/10 12:21:19;;;;;;;4.95;3.08;;;28.00;84.10;;;;;;5075224;28;20027;-76
2022/05/10 12:24:23;;;;;;;2.92;2.50;;;28.20;81.50;;;;;;5056402;28;20111;-76
2022/05/10 12:26:49;;;;;;;4.20;2.77;;;28.20;77.90;;;;;;5074432;28;20151;-76
2022/05/10 12:29:36;;;;;;;4.57;2.90;;;28.20;74.10;;;;;;5074722;28;20421;-76
2022/05/10 12:32:06;;;;;;;6.32;3.00;;;28.20;72.00;;;;;;5070891;28;20418;-80
2022/05/10 12:35:27;;;;;;;3.97;3.10;;;27.80;71.50;;;;;;5072444;28;20025;-80
2022/05/10 12:37:59;;;;;;;3.83;2.60;;;27.70;72.40;;;;;;5020607;28;20045;-80
2022/05/10 12:40:46;;;;;;;6.28;2.70;;;27.60;71.80;;;;;;5069741;28;20025;-81
2022/05/10 12:43:17;;;;;;;6.57;2.97;;;27.10;74.00;;;;;;5072474;28;20016;-81
2022/05/10 12:45:55;;;;;;;6.25;2.90;;;26.80;76.90;;;;;;5072305;28;20040;-81
2022/05/10 12:48:39;;;;;;;3.97;2.80;;;26.90;77.40;;;;;;5053558;28;20489;-81
2022/05/10 12:51:08;;;;;;;6.75;3.20;;;27.50;77.20;;;;;;5069620;28;20059;-81
2022/05/10 12:53:47;;;;;;;4.40;2.75;;;27.90;73.70;;;;;;5070328;28;20358;-81
2022/05/10 12:56:25;;;;;;;6.60;2.75;;;27.90;71.80;;;;;;5070125;28;20021;-81
2022/05/10 12:58:56;;;;;;;7.13;2.60;;;28.00;71.80;;;;;;5072257;28;20021;-80
2022/05/10 13:01:26;;;;;;;3.65;2.80;;;27.70;72.70;;;;;;5069625;28;20108;-80
2022/05/10 13:03:59;;;;;;;6.05;2.83;;;27.20;71.60;;;;;;5070866;28;20028;-81
2022/05/10 13:06:48;;;;;;;4.95;2.50;;;27.20;72.10;;;;;;5053433;28;20476;-80
2022/05/10 13:09:31;;;;;;;3.88;2.53;;;27.10;74.20;;;;;;5067997;28;20461;-80
2022/05/10 13:12:06;;;;;;;4.82;2.70;;;27.50;72.80;;;;;;5052714;28;20021;-80
2022/05/10 13:14:43;;;;;;;4.63;2.47;;;28.10;71.80;;;;;;5068566;28;20032;-80
2022/05/10 13:17:09;;;;;;;4.30;2.72;;;28.50;69.20;;;;;;5070751;28;20023;-80
2022/05/10 13:19:41;;;;;;;5.65;2.67;;;28.50;68.40;;;;;;5071011;28;20029;-80
2022/05/10 13:22:10;;;;;;;4.55;3.00;;;28.30;68.10;;;;;;5069522;28;20029;-80
2022/05/10 13:24:36;;;;;;;5.03;2.40;;;28.10;68.60;;;;;;5070235;28;20032;-80
2022/05/10 13:27:03;;;;;;;2.88;2.38;;;27.80;71.80;;;;;;5071287;28;20081;-81
2022/05/10 13:29:48;;;;;;;5.30;2.50;;;27.60;71.70;;;;;;5055012;28;20094;-82
2022/05/10 13:32:28;;;;;;;3.70;2.45;;;27.40;67.40;;;;;;5070395;28;20078;-82
2022/05/10 13:34:54;;;;;;;3.05;2.08;;;27.60;68.80;;;;;;5072552;28;20016;-82
2022/05/10 13:37:31;;;;;;;4.90;2.20;;;27.80;70.90;;;;;;5071671;28;20615;-80
2022/05/10 13:40:00;;;;;;;5.68;2.50;;;28.10;69.20;;;;;;5052031;28;20119;-82
2022/05/10 13:42:26;;;;;;;2.95;2.10;;;28.10;66.70;;;;;;5071574;28;20032;-82